sensor_id;sensor_type;location;lat;lon;timestamp;pressure;altitude;pressure_sealevel;temperature;humidity
59289;BME280;45056;47.602;9.886;2023-02-13T00:01:24;94483.56;;;2.43;60.15
59289;BME280;45056;47.602;9.886;2023-02-13T00:03:58;94473.97;;;2.42;59.93
59289;BME280;45056;47.602;9.886;2023-02-13T00:06:31;94482.34;;;2.40;60.04
59289;BME280;45056;47.602;9.886;2023-02-13T00:08:58;94487.31;;;2.38;60.04
59289;BME280;45056;47.602;9.886;2023-02-13T00:11:28;94483.44;;;2.36;60.11
59289;BME280;45056;47.602;9.886;2023-02-13T00:13:57;94485.31;;;2.35;60.06
59289;BME280;45056;47.602;9.886;2023-02-13T00:16:25;94485.66;;;2.34;60.09
59289;BME280;45056;47.602;9.886;2023-02-13T00:18:53;94481.78;;;2.31;60.33
59289;BME280;45056;47.602;9.886;2023-02-13T00:21:22;94475.97;;;2.29;60.14
59289;BME280;45056;47.602;9.886;2023-02-13T00:23:50;94477.44;;;2.26;60.36
59289;BME280;45056;47.602;9.886;2023-02-13T00:26:18;94482.06;;;2.26;60.71
59289;BME280;45056;47.602;9.886;2023-02-13T00:28:47;94476.25;;;2.24;60.55
59289;BME280;45056;47.602;9.886;2023-02-13T00:31:18;94474.28;;;2.21;60.45
59289;BME280;45056;47.602;9.886;2023-02-13T00:33:48;94474.53;;;2.15;60.44
59289;BME280;45056;47.602;9.886;2023-02-13T00:36:19;94478.34;;;2.14;60.54
59289;BME280;45056;47.602;9.886;2023-02-13T00:38:50;94480.59;;;2.12;60.40
59289;BME280;45056;47.602;9.886;2023-02-13T00:41:19;94490.19;;;2.13;60.56
59289;BME280;45056;47.602;9.886;2023-02-13T00:43:48;94488.66;;;2.12;60.49
59289;BME280;45056;47.602;9.886;2023-02-13T00:46:16;94482.50;;;2.12;60.38
59289;BME280;45056;47.602;9.886;2023-02-13T00:48:45;94485.19;;;2.12;60.42
59289;BME280;45056;47.602;9.886;2023-02-13T00:51:14;94490.56;;;2.12;60.25
59289;BME280;45056;47.602;9.886;2023-02-13T00:53:42;94482.84;;;2.10;60.33
59289;BME280;45056;47.602;9.886;2023-02-13T00:56:12;94478.59;;;2.09;60.25
59289;BME280;45056;47.602;9.886;2023-02-13T00:58:39;94478.97;;;2.08;60.52
59289;BME280;45056;47.602;9.886;2023-02-13T01:01:07;94479.31;;;2.06;60.11
59289;BME280;45056;47.602;9.886;2023-02-13T01:03:35;94486.16;;;2.04;60.27
59289;BME280;45056;47.602;9.886;2023-02-13T01:06:04;94494.13;;;2.00;60.18
59289;BME280;45056;47.602;9.886;2023-02-13T01:08:34;94492.13;;;1.97;60.45
59289;BME280;45056;47.602;9.886;2023-02-13T01:11:08;94497.06;;;1.95;60.27
59289;BME280;45056;47.602;9.886;2023-02-13T01:13:37;94499.34;;;1.93;60.41
59289;BME280;45056;47.602;9.886;2023-02-13T01:16:06;94506.97;;;1.91;60.41
59289;BME280;45056;47.602;9.886;2023-02-13T01:18:34;94504.59;;;1.89;60.53
59289;BME280;45056;47.602;9.886;2023-02-13T01:21:07;94505.41;;;1.90;60.42
59289;BME280;45056;47.602;9.886;2023-02-13T01:23:41;94496.56;;;1.89;60.70
59289;BME280;45056;47.602;9.886;2023-02-13T01:26:15;94499.59;;;1.87;60.67
59289;BME280;45056;47.602;9.886;2023-02-13T01:28:47;94497.69;;;1.88;60.43
59289;BME280;45056;47.602;9.886;2023-02-13T01:31:19;94497.69;;;1.88;60.51
59289;BME280;45056;47.602;9.886;2023-02-13T01:33:48;94492.66;;;1.86;60.62
59289;BME280;45056;47.602;9.886;2023-02-13T01:36:16;94502.19;;;1.84;60.31
59289;BME280;45056;47.602;9.886;2023-02-13T01:38:44;94504.88;;;1.84;60.39
59289;BME280;45056;47.602;9.886;2023-02-13T01:41:12;94498.28;;;1.81;60.26
59289;BME280;45056;47.602;9.886;2023-02-13T01:43:48;94504.00;;;1.80;60.41
59289;BME280;45056;47.602;9.886;2023-02-13T01:46:23;94495.53;;;1.78;60.33
59289;BME280;45056;47.602;9.886;2023-02-13T01:48:59;94491.28;;;1.77;60.54
59289;BME280;45056;47.602;9.886;2023-02-13T01:51:34;94496.56;;;1.73;60.21
59289;BME280;45056;47.602;9.886;2023-02-13T01:54:08;94503.84;;;1.72;60.34
59289;BME280;45056;47.602;9.886;2023-02-13T01:56:42;94499.56;;;1.71;60.56
59289;BME280;45056;47.602;9.886;2023-02-13T01:59:20;94499.94;;;1.70;60.41
59289;BME280;45056;47.602;9.886;2023-02-13T02:01:53;94506.00;;;1.67;60.61
59289;BME280;45056;47.602;9.886;2023-02-13T02:04:27;94503.66;;;1.65;60.59
59289;BME280;45056;47.602;9.886;2023-02-13T02:07:04;94506.25;;;1.62;60.46
59289;BME280;45056;47.602;9.886;2023-02-13T02:09:38;94513.09;;;1.59;60.79
59289;BME280;45056;47.602;9.886;2023-02-13T02:12:17;94526.84;;;1.57;60.66
59289;BME280;45056;47.602;9.886;2023-02-13T02:14:53;94529.06;;;1.55;60.58
59289;BME280;45056;47.602;9.886;2023-02-13T02:17:25;94524.84;;;1.54;60.87
59289;BME280;45056;47.602;9.886;2023-02-13T02:20:03;94520.59;;;1.53;61.20
59289;BME280;45056;47.602;9.886;2023-02-13T02:23:10;94527.97;;;1.56;62.37
59289;BME280;45056;47.602;9.886;2023-02-13T02:26:17;94524.50;;;1.56;63.72
59289;BME280;45056;47.602;9.886;2023-02-13T02:29:27;94528.31;;;1.55;64.05
59289;BME280;45056;47.602;9.886;2023-02-13T02:35:26;94528.75;;;1.57;65.10
59289;BME280;45056;47.602;9.886;2023-02-13T02:38:16;94527.72;;;1.62;65.08
59289;BME280;45056;47.602;9.886;2023-02-13T02:41:07;94528.59;;;1.66;65.14
59289;BME280;45056;47.602;9.886;2023-02-13T02:44:15;94532.47;;;1.68;65.46
59289;BME280;45056;47.602;9.886;2023-02-13T02:47:10;94541.41;;;1.72;65.74
59289;BME280;45056;47.602;9.886;2023-02-13T02:50:14;94541.84;;;1.75;65.71
59289;BME280;45056;47.602;9.886;2023-02-13T02:53:01;94548.41;;;1.77;65.85
59289;BME280;45056;47.602;9.886;2023-02-13T02:55:41;94550.41;;;1.80;66.05
59289;BME280;45056;47.602;9.886;2023-02-13T02:58:20;94547.38;;;1.82;66.29
59289;BME280;45056;47.602;9.886;2023-02-13T03:01:15;94558.19;;;1.85;66.46
59289;BME280;45056;47.602;9.886;2023-02-13T03:04:03;94560.88;;;1.85;66.88
59289;BME280;45056;47.602;9.886;2023-02-13T03:06:55;94562.00;;;1.84;67.69
59289;BME280;45056;47.602;9.886;2023-02-13T03:09:31;94563.13;;;1.83;67.86
59289;BME280;45056;47.602;9.886;2023-02-13T03:12:35;94560.22;;;1.89;68.37
59289;BME280;45056;47.602;9.886;2023-02-13T03:15:27;94561.41;;;1.91;68.84
59289;BME280;45056;47.602;9.886;2023-02-13T03:17:56;94574.94;;;1.95;69.10
59289;BME280;45056;47.602;9.886;2023-02-13T03:21:09;94581.06;;;1.95;69.36
59289;BME280;45056;47.602;9.886;2023-02-13T03:24:08;94581.50;;;1.97;69.46
59289;BME280;45056;47.602;9.886;2023-02-13T03:26:54;94581.06;;;1.95;69.43
59289;BME280;45056;47.602;9.886;2023-02-13T03:29:43;94582.88;;;1.91;69.29
59289;BME280;45056;47.602;9.886;2023-02-13T03:32:42;94582.81;;;1.87;69.54
59289;BME280;45056;47.602;9.886;2023-02-13T03:35:31;94587.72;;;1.85;69.93
59289;BME280;45056;47.602;9.886;2023-02-13T03:38:29;94588.06;;;1.84;70.19
59289;BME280;45056;47.602;9.886;2023-02-13T03:41:15;94589.28;;;1.86;70.45
59289;BME280;45056;47.602;9.886;2023-02-13T03:44:00;94591.31;;;1.90;70.41
59289;BME280;45056;47.602;9.886;2023-02-13T03:46:41;94589.81;;;1.92;70.49
59289;BME280;45056;47.602;9.886;2023-02-13T03:49:20;94588.34;;;1.95;70.55
59289;BME280;45056;47.602;9.886;2023-02-13T03:52:15;94583.41;;;1.97;70.92
59289;BME280;45056;47.602;9.886;2023-02-13T03:54:53;94589.22;;;1.99;70.95
59289;BME280;45056;47.602;9.886;2023-02-13T03:57:44;94587.06;;;2.05;70.93
59289;BME280;45056;47.602;9.886;2023-02-13T04:00:38;94587.25;;;2.12;70.99
59289;BME280;45056;47.602;9.886;2023-02-13T04:03:14;94585.84;;;2.18;70.67
59289;BME280;45056;47.602;9.886;2023-02-13T04:05:54;94591.75;;;2.24;70.42
59289;BME280;45056;47.602;9.886;2023-02-13T04:08:29;94602.13;;;2.25;70.91
59289;BME280;45056;47.602;9.886;2023-02-13T04:11:06;94588.69;;;2.25;70.66
59289;BME280;45056;47.602;9.886;2023-02-13T04:13:48;94596.06;;;2.28;71.10
59289;BME280;45056;47.602;9.886;2023-02-13T04:16:28;94602.66;;;2.31;70.99
59289;BME280;45056;47.602;9.886;2023-02-13T04:19:01;94595.78;;;2.34;71.13
59289;BME280;45056;47.602;9.886;2023-02-13T04:21:32;94590.78;;;2.32;70.98
59289;BME280;45056;47.602;9.886;2023-02-13T04:24:01;94592.25;;;2.29;70.85
59289;BME280;45056;47.602;9.886;2023-02-13T04:26:34;94586.09;;;2.29;71.11
59289;BME280;45056;47.602;9.886;2023-02-13T04:29:06;94590.25;;;2.26;70.92
59289;BME280;45056;47.602;9.886;2023-02-13T04:31:34;94583.25;;;2.22;71.14
59289;BME280;45056;47.602;9.886;2023-02-13T04:34:02;94581.28;;;2.19;71.18
59289;BME280;45056;47.602;9.886;2023-02-13T04:36:31;94581.94;;;2.15;71.20
59289;BME280;45056;47.602;9.886;2023-02-13T04:38:59;94573.00;;;2.11;71.04
59289;BME280;45056;47.602;9.886;2023-02-13T04:41:27;94578.38;;;2.11;71.56
59289;BME280;45056;47.602;9.886;2023-02-13T04:43:55;94575.38;;;2.13;71.47
59289;BME280;45056;47.602;9.886;2023-02-13T04:46:25;94576.13;;;2.13;71.60
59289;BME280;45056;47.602;9.886;2023-02-13T04:48:53;94571.19;;;2.15;71.44
59289;BME280;45056;47.602;9.886;2023-02-13T04:51:21;94575.09;;;2.18;71.44
59289;BME280;45056;47.602;9.886;2023-02-13T04:53:49;94584.38;;;2.21;71.41
59289;BME280;45056;47.602;9.886;2023-02-13T04:56:17;94576.66;;;2.19;71.55
59289;BME280;45056;47.602;9.886;2023-02-13T04:58:45;94572.00;;;2.16;71.42
59289;BME280;45056;47.602;9.886;2023-02-13T05:01:14;94573.13;;;2.15;71.40
59289;BME280;45056;47.602;9.886;2023-02-13T05:03:45;94584.63;;;2.15;71.62
59289;BME280;45056;47.602;9.886;2023-02-13T05:06:13;94582.28;;;2.14;71.42
59289;BME280;45056;47.602;9.886;2023-02-13T05:08:41;94585.75;;;2.14;71.26
59289;BME280;45056;47.602;9.886;2023-02-13T05:11:09;94588.88;;;2.16;71.43
59289;BME280;45056;47.602;9.886;2023-02-13T05:13:37;94590.41;;;2.17;71.18
59289;BME280;45056;47.602;9.886;2023-02-13T05:16:05;94582.03;;;2.19;71.13
59289;BME280;45056;47.602;9.886;2023-02-13T05:18:33;94585.84;;;2.18;70.87
59289;BME280;45056;47.602;9.886;2023-02-13T05:21:03;94586.19;;;2.16;70.89
59289;BME280;45056;47.602;9.886;2023-02-13T05:23:49;94584.28;;;2.17;70.67
59289;BME280;45056;47.602;9.886;2023-02-13T05:26:17;94581.28;;;2.19;70.65
59289;BME280;45056;47.602;9.886;2023-02-13T05:28:45;94586.28;;;2.20;70.65
59289;BME280;45056;47.602;9.886;2023-02-13T05:31:30;94582.81;;;2.20;70.35
59289;BME280;45056;47.602;9.886;2023-02-13T05:33:58;94580.47;;;2.18;70.40
59289;BME280;45056;47.602;9.886;2023-02-13T05:36:28;94582.03;;;2.19;69.75
59289;BME280;45056;47.602;9.886;2023-02-13T05:38:56;94592.00;;;2.19;69.90
59289;BME280;45056;47.602;9.886;2023-02-13T05:41:24;94588.97;;;2.20;69.56
59289;BME280;45056;47.602;9.886;2023-02-13T05:43:52;94578.59;;;2.19;69.28
59289;BME280;45056;47.602;9.886;2023-02-13T05:46:20;94583.84;;;2.15;69.28
59289;BME280;45056;47.602;9.886;2023-02-13T05:48:48;94590.69;;;2.12;69.17
59289;BME280;45056;47.602;9.886;2023-02-13T05:51:17;94596.06;;;2.12;69.26
59289;BME280;45056;47.602;9.886;2023-02-13T05:53:46;94591.13;;;2.14;69.19
59289;BME280;45056;47.602;9.886;2023-02-13T05:56:16;94593.47;;;2.16;69.28
59289;BME280;45056;47.602;9.886;2023-02-13T05:58:44;94589.56;;;2.13;69.31
59289;BME280;45056;47.602;9.886;2023-02-13T06:01:12;94589.13;;;2.11;69.27
59289;BME280;45056;47.602;9.886;2023-02-13T06:03:40;94588.69;;;2.09;69.79
59289;BME280;45056;47.602;9.886;2023-02-13T06:06:08;94585.69;;;2.11;69.88
59289;BME280;45056;47.602;9.886;2023-02-13T06:08:36;94587.25;;;2.12;70.26
59289;BME280;45056;47.602;9.886;2023-02-13T06:11:06;94588.44;;;2.14;70.45
59289;BME280;45056;47.602;9.886;2023-02-13T06:13:34;94590.41;;;2.17;70.24
59289;BME280;45056;47.602;9.886;2023-02-13T06:16:06;94600.06;;;2.19;70.46
59289;BME280;45056;47.602;9.886;2023-02-13T06:18:35;94598.94;;;2.20;70.29
59289;BME280;45056;47.602;9.886;2023-02-13T06:21:05;94602.75;;;2.19;70.56
59289;BME280;45056;47.602;9.886;2023-02-13T06:23:34;94600.50;;;2.21;70.69
59289;BME280;45056;47.602;9.886;2023-02-13T06:26:02;94604.75;;;2.22;70.63
59289;BME280;45056;47.602;9.886;2023-02-13T06:28:34;94599.00;;;2.23;70.59
59289;BME280;45056;47.602;9.886;2023-02-13T06:31:03;94609.06;;;2.26;70.61
59289;BME280;45056;47.602;9.886;2023-02-13T06:33:32;94601.00;;;2.26;70.40
59289;BME280;45056;47.602;9.886;2023-02-13T06:36:00;94601.00;;;2.26;70.67
59289;BME280;45056;47.602;9.886;2023-02-13T06:38:28;94614.09;;;2.28;70.58
59289;BME280;45056;47.602;9.886;2023-02-13T06:40:59;94601.09;;;2.30;70.80
59289;BME280;45056;47.602;9.886;2023-02-13T06:43:28;94602.28;;;2.33;70.73
59289;BME280;45056;47.602;9.886;2023-02-13T06:45:57;94606.19;;;2.35;70.43
59289;BME280;45056;47.602;9.886;2023-02-13T06:48:25;94606.63;;;2.37;70.61
59289;BME280;45056;47.602;9.886;2023-02-13T06:50:54;94604.75;;;2.38;70.63
59289;BME280;45056;47.602;9.886;2023-02-13T06:53:22;94608.63;;;2.40;70.80
59289;BME280;45056;47.602;9.886;2023-02-13T06:55:51;94609.06;;;2.42;70.60
59289;BME280;45056;47.602;9.886;2023-02-13T06:58:20;94607.16;;;2.43;70.51
59289;BME280;45056;47.602;9.886;2023-02-13T07:00:49;94604.03;;;2.41;70.05
59289;BME280;45056;47.602;9.886;2023-02-13T07:03:19;94617.97;;;2.30;69.62
59289;BME280;45056;47.602;9.886;2023-02-13T07:05:48;94623.19;;;2.23;69.97
59289;BME280;45056;47.602;9.886;2023-02-13T07:08:17;94624.56;;;2.17;70.20
59289;BME280;45056;47.602;9.886;2023-02-13T07:10:46;94621.78;;;2.13;69.95
59289;BME280;45056;47.602;9.886;2023-02-13T07:13:14;94634.78;;;2.11;70.14
59289;BME280;45056;47.602;9.886;2023-02-13T07:15:42;94639.81;;;2.13;70.37
59289;BME280;45056;47.602;9.886;2023-02-13T07:18:10;94634.09;;;2.14;70.45
59289;BME280;45056;47.602;9.886;2023-02-13T07:20:40;94631.16;;;2.20;70.37
59289;BME280;45056;47.602;9.886;2023-02-13T07:23:09;94634.34;;;2.25;70.27
59289;BME280;45056;47.602;9.886;2023-02-13T07:25:37;94634.47;;;2.29;70.31
59289;BME280;45056;47.602;9.886;2023-02-13T07:28:06;94639.13;;;2.32;70.35
59289;BME280;45056;47.602;9.886;2023-02-13T07:30:34;94641.91;;;2.36;70.47
59289;BME280;45056;47.602;9.886;2023-02-13T07:33:03;94642.41;;;2.41;70.62
59289;BME280;45056;47.602;9.886;2023-02-13T07:35:32;94641.38;;;2.46;70.69
59289;BME280;45056;47.602;9.886;2023-02-13T07:38:03;94646.50;;;2.51;70.80
59289;BME280;45056;47.602;9.886;2023-02-13T07:40:31;94644.25;;;2.53;70.58
59289;BME280;45056;47.602;9.886;2023-02-13T07:42:59;94642.78;;;2.56;70.76
59289;BME280;45056;47.602;9.886;2023-02-13T07:45:28;94638.16;;;2.56;70.60
59289;BME280;45056;47.602;9.886;2023-02-13T07:47:57;94647.44;;;2.59;70.79
59289;BME280;45056;47.602;9.886;2023-02-13T07:50:26;94646.75;;;2.62;70.70
59289;BME280;45056;47.602;9.886;2023-02-13T07:52:54;94651.44;;;2.65;70.59
59289;BME280;45056;47.602;9.886;2023-02-13T07:55:25;94648.03;;;2.68;70.37
59289;BME280;45056;47.602;9.886;2023-02-13T07:57:53;94658.88;;;2.72;70.32
59289;BME280;45056;47.602;9.886;2023-02-13T08:00:22;94657.06;;;2.76;70.42
59289;BME280;45056;47.602;9.886;2023-02-13T08:02:50;94654.00;;;2.78;70.08
59289;BME280;45056;47.602;9.886;2023-02-13T08:05:18;94658.53;;;2.73;69.78
59289;BME280;45056;47.602;9.886;2023-02-13T08:07:46;94655.34;;;2.68;69.81
59289;BME280;45056;47.602;9.886;2023-02-13T08:10:14;94661.75;;;2.63;69.53
59289;BME280;45056;47.602;9.886;2023-02-13T08:13:02;94662.88;;;2.62;69.79
59289;BME280;45056;47.602;9.886;2023-02-13T08:15:32;94663.22;;;2.60;69.80
59289;BME280;45056;47.602;9.886;2023-02-13T08:18:00;94670.78;;;2.55;69.93
59289;BME280;45056;47.602;9.886;2023-02-13T08:20:28;94667.56;;;2.49;69.87
59289;BME280;45056;47.602;9.886;2023-02-13T08:23:01;94666.16;;;2.39;69.81
59289;BME280;45056;47.602;9.886;2023-02-13T08:25:30;94667.66;;;2.37;70.04
59289;BME280;45056;47.602;9.886;2023-02-13T08:28:01;94661.06;;;2.34;70.20
59289;BME280;45056;47.602;9.886;2023-02-13T08:30:29;94662.09;;;2.29;70.01
59289;BME280;45056;47.602;9.886;2023-02-13T08:32:58;94659.66;;;2.24;70.32
59289;BME280;45056;47.602;9.886;2023-02-13T08:35:26;94665.81;;;2.25;70.62
59289;BME280;45056;47.602;9.886;2023-02-13T08:38:01;94665.81;;;2.25;70.52
59289;BME280;45056;47.602;9.886;2023-02-13T08:40:29;94665.13;;;2.28;70.43
59289;BME280;45056;47.602;9.886;2023-02-13T08:43:03;94669.44;;;2.33;70.72
59289;BME280;45056;47.602;9.886;2023-02-13T08:45:33;94669.97;;;2.38;70.75
59289;BME280;45056;47.602;9.886;2023-02-13T08:48:02;94680.56;;;2.47;70.80
59289;BME280;45056;47.602;9.886;2023-02-13T08:50:30;94673.91;;;2.57;70.39
59289;BME280;45056;47.602;9.886;2023-02-13T08:52:59;94671.72;;;2.63;70.46
59289;BME280;45056;47.602;9.886;2023-02-13T08:55:27;94666.53;;;2.70;69.85
59289;BME280;45056;47.602;9.886;2023-02-13T08:57:58;94671.69;;;2.79;69.95
59289;BME280;45056;47.602;9.886;2023-02-13T09:00:29;94674.22;;;2.87;69.37
59289;BME280;45056;47.602;9.886;2023-02-13T09:03:02;94674.31;;;2.91;68.48
59289;BME280;45056;47.602;9.886;2023-02-13T09:05:30;94678.56;;;2.92;68.67
59289;BME280;45056;47.602;9.886;2023-02-13T09:07:59;94676.72;;;2.96;68.43
59289;BME280;45056;47.602;9.886;2023-02-13T09:10:28;94669.06;;;2.98;68.34
59289;BME280;45056;47.602;9.886;2023-02-13T09:12:56;94674.19;;;3.03;68.31
59289;BME280;45056;47.602;9.886;2023-02-13T09:15:26;94668.09;;;3.07;68.45
59289;BME280;45056;47.602;9.886;2023-02-13T09:17:56;94667.91;;;3.15;68.29
59289;BME280;45056;47.602;9.886;2023-02-13T09:20:24;94673.88;;;3.25;67.95
59289;BME280;45056;47.602;9.886;2023-02-13T09:22:53;94671.41;;;3.36;67.80
59289;BME280;45056;47.602;9.886;2023-02-13T09:25:22;94672.44;;;3.47;67.60
59289;BME280;45056;47.602;9.886;2023-02-13T09:27:50;94661.09;;;3.57;67.17
59289;BME280;45056;47.602;9.886;2023-02-13T09:30:18;94662.78;;;3.66;66.94
59289;BME280;45056;47.602;9.886;2023-02-13T09:32:50;94670.75;;;3.78;66.63
59289;BME280;45056;47.602;9.886;2023-02-13T09:35:21;94661.38;;;3.92;65.97
59289;BME280;45056;47.602;9.886;2023-02-13T09:37:50;94667.59;;;3.96;65.25
59289;BME280;45056;47.602;9.886;2023-02-13T09:40:25;94663.75;;;3.97;65.08
59289;BME280;45056;47.602;9.886;2023-02-13T09:43:04;94659.59;;;3.99;64.97
59289;BME280;45056;47.602;9.886;2023-02-13T09:45:35;94656.25;;;4.06;65.03
59289;BME280;45056;47.602;9.886;2023-02-13T09:48:05;94655.53;;;4.09;64.70
59289;BME280;45056;47.602;9.886;2023-02-13T09:50:38;94653.28;;;4.11;64.78
59289;BME280;45056;47.602;9.886;2023-02-13T09:53:06;94659.63;;;4.23;65.40
59289;BME280;45056;47.602;9.886;2023-02-13T09:55:48;94658.19;;;4.52;64.99
59289;BME280;45056;47.602;9.886;2023-02-13T09:58:41;94660.91;;;4.79;63.99
59289;BME280;45056;47.602;9.886;2023-02-13T10:01:21;94661.25;;;5.01;63.45
59289;BME280;45056;47.602;9.886;2023-02-13T10:04:13;94662.81;;;5.29;63.05
59289;BME280;45056;47.602;9.886;2023-02-13T10:07:05;94665.88;;;5.58;62.21
59289;BME280;45056;47.602;9.886;2023-02-13T10:09:52;94654.22;;;5.84;61.31
59289;BME280;45056;47.602;9.886;2023-02-13T10:12:48;94660.16;;;5.97;60.97
59289;BME280;45056;47.602;9.886;2023-02-13T10:15:36;94661.13;;;6.12;60.35
59289;BME280;45056;47.602;9.886;2023-02-13T10:18:17;94654.34;;;6.29;59.48
59289;BME280;45056;47.602;9.886;2023-02-13T10:20:52;94649.44;;;6.42;59.22
59289;BME280;45056;47.602;9.886;2023-02-13T10:23:29;94647.63;;;6.57;59.52
59289;BME280;45056;47.602;9.886;2023-02-13T10:26:05;94649.31;;;6.76;59.17
59289;BME280;45056;47.602;9.886;2023-02-13T10:28:43;94642.13;;;6.95;59.18
59289;BME280;45056;47.602;9.886;2023-02-13T10:31:38;94641.47;;;7.13;58.34
59289;BME280;45056;47.602;9.886;2023-02-13T10:34:14;94638.03;;;7.19;58.16
59289;BME280;45056;47.602;9.886;2023-02-13T10:36:45;94634.19;;;7.24;57.67
59289;BME280;45056;47.602;9.886;2023-02-13T10:39:22;94639.66;;;7.31;58.10
59289;BME280;45056;47.602;9.886;2023-02-13T10:41:52;94639.72;;;7.42;58.27
59289;BME280;45056;47.602;9.886;2023-02-13T10:44:38;94645.56;;;7.59;58.58
59289;BME280;45056;47.602;9.886;2023-02-13T10:47:34;94639.88;;;7.78;58.71
59289;BME280;45056;47.602;9.886;2023-02-13T10:50:22;94633.75;;;8.03;58.17
59289;BME280;45056;47.602;9.886;2023-02-13T10:53:10;94633.78;;;8.25;57.82
59289;BME280;45056;47.602;9.886;2023-02-13T10:58:55;94635.41;;;8.66;57.94
59289;BME280;45056;47.602;9.886;2023-02-13T11:01:40;94629.63;;;8.89;57.33
59289;BME280;45056;47.602;9.886;2023-02-13T11:04:17;94629.97;;;8.95;56.07
59289;BME280;45056;47.602;9.886;2023-02-13T11:06:51;94628.06;;;8.85;56.47
59289;BME280;45056;47.602;9.886;2023-02-13T11:09:23;94621.47;;;8.64;55.86
59289;BME280;45056;47.602;9.886;2023-02-13T11:11:53;94621.47;;;8.49;56.26
59289;BME280;45056;47.602;9.886;2023-02-13T11:14:24;94623.72;;;8.40;56.94
59289;BME280;45056;47.602;9.886;2023-02-13T11:16:57;94619.88;;;8.45;57.11
59289;BME280;45056;47.602;9.886;2023-02-13T11:19:32;94611.38;;;8.54;56.82
59289;BME280;45056;47.602;9.886;2023-02-13T11:22:08;94616.03;;;8.64;56.88
59289;BME280;45056;47.602;9.886;2023-02-13T11:24:41;94621.84;;;8.77;56.81
59289;BME280;45056;47.602;9.886;2023-02-13T11:27:27;94614.47;;;8.88;56.18
59289;BME280;45056;47.602;9.886;2023-02-13T11:30:02;94622.22;;;8.97;56.13
59289;BME280;45056;47.602;9.886;2023-02-13T11:32:34;94614.44;;;9.14;55.76
59289;BME280;45056;47.602;9.886;2023-02-13T11:35:26;94605.50;;;9.24;55.48
59289;BME280;45056;47.602;9.886;2023-02-13T11:38:21;94610.91;;;9.38;55.67
59289;BME280;45056;47.602;9.886;2023-02-13T11:41:04;94604.25;;;9.54;54.93
59289;BME280;45056;47.602;9.886;2023-02-13T11:43:43;94602.66;;;9.67;54.79
59289;BME280;45056;47.602;9.886;2023-02-13T11:46:20;94604.91;;;9.84;54.80
59289;BME280;45056;47.602;9.886;2023-02-13T11:49:00;94596.69;;;9.94;54.25
59289;BME280;45056;47.602;9.886;2023-02-13T11:51:38;94601.69;;;10.03;53.63
59289;BME280;45056;47.602;9.886;2023-02-13T11:54:26;94598.13;;;10.14;53.63
59289;BME280;45056;47.602;9.886;2023-02-13T11:57:01;94596.88;;;10.25;53.65
59289;BME280;45056;47.602;9.886;2023-02-13T11:59:47;94600.31;;;10.44;53.21
59289;BME280;45056;47.602;9.886;2023-02-13T12:02:19;94595.13;;;10.61;52.71
59289;BME280;45056;47.602;9.886;2023-02-13T12:04:50;94596.56;;;10.76;52.78
59289;BME280;45056;47.602;9.886;2023-02-13T12:07:23;94594.84;;;10.97;52.36
59289;BME280;45056;47.602;9.886;2023-02-13T12:09:58;94592.75;;;11.12;51.76
59289;BME280;45056;47.602;9.886;2023-02-13T12:12:36;94594.09;;;11.31;51.00
59289;BME280;45056;47.602;9.886;2023-02-13T12:15:17;94582.22;;;11.49;50.54
59289;BME280;45056;47.602;9.886;2023-02-13T12:17:57;94588.28;;;11.64;50.19
59289;BME280;45056;47.602;9.886;2023-02-13T12:20:39;94586.22;;;11.75;50.17
59289;BME280;45056;47.602;9.886;2023-02-13T12:23:27;94580.97;;;11.88;49.45
59289;BME280;45056;47.602;9.886;2023-02-13T12:26:28;94589.78;;;12.00;49.39
59289;BME280;45056;47.602;9.886;2023-02-13T12:29:21;94588.88;;;12.10;48.88
59289;BME280;45056;47.602;9.886;2023-02-13T12:32:16;94581.00;;;12.19;48.39
59289;BME280;45056;47.602;9.886;2023-02-13T12:35:04;94577.78;;;12.24;48.34
59289;BME280;45056;47.602;9.886;2023-02-13T12:38:06;94573.41;;;12.31;47.73
59289;BME280;45056;47.602;9.886;2023-02-13T12:41:08;94563.56;;;12.37;47.96
59289;BME280;45056;47.602;9.886;2023-02-13T12:44:06;94565.06;;;12.41;48.05
59289;BME280;45056;47.602;9.886;2023-02-13T12:46:57;94582.88;;;12.50;47.74
59289;BME280;45056;47.602;9.886;2023-02-13T12:53:06;94574.50;;;12.61;47.56
59289;BME280;45056;47.602;9.886;2023-02-13T12:56:05;94560.75;;;12.68;47.41
59289;BME280;45056;47.602;9.886;2023-02-13T12:58:59;94562.16;;;12.76;46.41
59289;BME280;45056;47.602;9.886;2023-02-13T13:02:13;94567.56;;;12.80;46.93
59289;BME280;45056;47.602;9.886;2023-02-13T13:05:15;94561.09;;;12.94;46.62
59289;BME280;45056;47.602;9.886;2023-02-13T13:08:14;94565.22;;;13.02;45.75
59289;BME280;45056;47.602;9.886;2023-02-13T13:11:09;94566.44;;;13.01;45.86
59289;BME280;45056;47.602;9.886;2023-02-13T13:14:02;94567.13;;;13.05;45.80
59289;BME280;45056;47.602;9.886;2023-02-13T13:16:47;94558.47;;;13.10;45.32
59289;BME280;45056;47.602;9.886;2023-02-13T13:19:34;94563.56;;;13.08;45.13
59289;BME280;45056;47.602;9.886;2023-02-13T13:22:15;94561.25;;;13.07;45.24
59289;BME280;45056;47.602;9.886;2023-02-13T13:24:57;94570.22;;;13.07;45.35
59289;BME280;45056;47.602;9.886;2023-02-13T13:27:41;94563.94;;;13.10;45.71
59289;BME280;45056;47.602;9.886;2023-02-13T13:30:17;94563.44;;;13.16;45.13
59289;BME280;45056;47.602;9.886;2023-02-13T13:32:53;94563.00;;;13.17;45.18
59289;BME280;45056;47.602;9.886;2023-02-13T13:35:29;94563.38;;;13.19;45.04
59289;BME280;45056;47.602;9.886;2023-02-13T13:38:09;94560.56;;;13.23;45.06
59289;BME280;45056;47.602;9.886;2023-02-13T13:40:50;94558.19;;;13.25;45.13
59289;BME280;45056;47.602;9.886;2023-02-13T13:43:31;94550.84;;;13.22;44.68
59289;BME280;45056;47.602;9.886;2023-02-13T13:46:13;94560.22;;;13.21;44.98
59289;BME280;45056;47.602;9.886;2023-02-13T13:49:17;94558.59;;;13.23;45.22
59289;BME280;45056;47.602;9.886;2023-02-13T13:52:24;94552.31;;;13.26;45.49
59289;BME280;45056;47.602;9.886;2023-02-13T13:54:56;94554.97;;;13.30;44.86
59289;BME280;45056;47.602;9.886;2023-02-13T13:57:27;94555.75;;;13.31;45.15
59289;BME280;45056;47.602;9.886;2023-02-13T14:00:28;94556.50;;;13.31;45.07
59289;BME280;45056;47.602;9.886;2023-02-13T14:03:22;94551.84;;;13.32;45.06
59289;BME280;45056;47.602;9.886;2023-02-13T14:06:05;94555.66;;;13.34;45.21
59289;BME280;45056;47.602;9.886;2023-02-13T14:12:36;94552.88;;;13.38;44.87